Time;durP1;ratioP1;P1;durP2;ratioP2;P2;SDS_P1;SDS_P2;PMS_P1;PMS_P2;Temp;Humidity;BMP_temperature;BMP_pressure;BME280_temperature;BME280_humidity;BME280_pressure;Samples;Min_cycle;Max_cycle;Signal;HPM_P1;HPM_P2
2022/01/23 00:01:42;;;;;;;5.32;2.20;;;6.40;99.90;;;;;;6252927;22;20007;-79
2022/01/23 00:04:07;;;;;;;5.22;2.17;;;6.40;99.90;;;;;;6254848;22;19999;-79
2022/01/23 00:06:33;;;;;;;4.95;1.77;;;6.40;99.90;;;;;;6281182;22;20007;-79
2022/01/23 00:08:59;;;;;;;5.90;2.30;;;6.40;99.90;;;;;;6281503;22;20007;-79
2022/01/23 00:11:27;;;;;;;8.15;1.13;;;6.40;99.90;;;;;;6280508;22;20000;-79
2022/01/23 00:19:05;;;;;;;6.28;1.45;;;6.40;99.90;;;;;;6280030;22;20019;-79
2022/01/23 00:21:33;;;;;;;2.78;1.13;;;6.50;99.90;;;;;;6249513;22;20011;-78
2022/01/23 00:32:09;;;;;;;9.38;1.95;;;6.40;99.90;;;;;;6263155;22;20015;-78
2022/01/23 00:34:36;;;;;;;7.10;1.63;;;6.40;99.90;;;;;;6275264;22;20416;-78
2022/01/23 00:37:02;;;;;;;6.93;1.85;;;6.40;99.90;;;;;;6248621;22;20423;-78
2022/01/23 00:39:27;;;;;;;4.93;1.35;;;6.40;99.90;;;;;;6249876;22;20031;-78
2022/01/23 00:41:53;;;;;;;10.73;1.77;;;6.40;99.90;;;;;;6252676;22;20035;-80
2022/01/23 00:44:19;;;;;;;6.50;2.03;;;6.40;99.90;;;;;;6280695;22;20004;-78
2022/01/23 00:46:50;;;;;;;4.70;1.55;;;6.50;99.90;;;;;;6279992;22;20007;-79
2022/01/23 00:49:25;;;;;;;8.48;1.50;;;6.50;99.90;;;;;;6281074;22;20011;-79
2022/01/23 00:51:52;;;;;;;6.47;1.88;;;6.50;99.90;;;;;;6253474;22;20079;-79
2022/01/23 00:54:17;;;;;;;5.53;1.80;;;6.50;99.90;;;;;;6253827;22;20000;-80
2022/01/23 00:56:43;;;;;;;4.55;1.25;;;6.50;99.90;;;;;;6281168;22;20021;-81
2022/01/23 00:59:08;;;;;;;9.70;2.13;;;6.50;99.90;;;;;;6280981;22;20079;-79
2022/01/23 01:01:34;;;;;;;5.00;1.52;;;6.50;99.90;;;;;;6253260;22;20056;-79
2022/01/23 01:04:00;;;;;;;6.22;1.60;;;6.50;99.90;;;;;;6253380;22;20067;-80
2022/01/23 01:06:26;;;;;;;3.60;1.67;;;6.50;99.90;;;;;;6254520;22;20026;-80
2022/01/23 01:08:54;;;;;;;5.90;2.35;;;6.40;99.90;;;;;;6254691;22;20014;-80
2022/01/23 01:14:22;;;;;;;9.15;2.25;;;6.50;99.90;;;;;;6292203;22;20313;-80
2022/01/23 01:17:10;;;;;;;5.68;1.77;;;6.50;99.90;;;;;;6282105;22;20458;-80
2022/01/23 01:35:39;;;;;;;16.48;2.88;;;6.50;99.90;;;;;;6284746;22;20095;-79
2022/01/23 01:38:05;;;;;;;12.30;2.80;;;6.50;99.90;;;;;;6255328;22;20012;-78
2022/01/23 01:40:31;;;;;;;11.13;2.28;;;6.50;99.90;;;;;;6278403;22;20011;-78
2022/01/23 01:42:56;;;;;;;10.90;3.17;;;6.50;99.90;;;;;;6251151;22;20145;-76
2022/01/23 01:45:28;;;;;;;10.27;2.97;;;6.50;99.90;;;;;;6251051;22;20439;-76
2022/01/23 01:47:57;;;;;;;9.55;3.10;;;6.50;99.90;;;;;;6251328;22;20006;-77
2022/01/23 01:50:23;;;;;;;6.28;2.17;;;6.50;99.90;;;;;;6278414;22;20034;-77
2022/01/23 01:52:49;;;;;;;8.93;2.65;;;6.50;99.90;;;;;;6250784;22;20007;-77
2022/01/23 01:55:22;;;;;;;5.55;2.50;;;6.50;99.90;;;;;;6251041;22;20023;-77
2022/01/23 01:57:53;;;;;;;7.18;2.38;;;6.50;99.90;;;;;;6252110;22;20003;-77
2022/01/23 02:03:18;;;;;;;7.05;2.85;;;6.50;99.90;;;;;;6278465;22;20007;-78
2022/01/23 02:08:31;;;;;;;9.32;3.22;;;6.40;99.90;;;;;;6278769;22;20057;-78
2022/01/23 02:11:20;;;;;;;10.45;3.47;;;6.50;99.90;;;;;;6277987;22;20383;-77
2022/01/23 02:13:52;;;;;;;12.25;3.05;;;6.40;99.90;;;;;;6278127;22;20000;-77
2022/01/23 02:56:53;;;;;;;9.80;3.20;;;6.50;99.90;;;;;;6282206;22;20424;-81
2022/01/23 02:59:23;;;;;;;10.70;3.65;;;6.50;99.90;;;;;;6281337;22;20023;-80
2022/01/23 03:02:13;;;;;;;9.70;3.47;;;6.50;99.90;;;;;;6253794;22;20012;-80
2022/01/23 03:04:48;;;;;;;13.93;4.78;;;6.50;99.90;;;;;;6281916;22;20434;-80
2022/01/23 03:14:54;;;;;;;11.07;3.15;;;6.50;99.90;;;;;;6293386;22;20012;-81
2022/01/23 03:26:09;;;;;;;8.93;3.20;;;6.50;99.90;;;;;;6281838;22;20342;-81
2022/01/23 03:28:38;;;;;;;13.80;3.90;;;6.50;99.90;;;;;;6280956;22;20085;-79
2022/01/23 03:33:33;;;;;;;13.98;4.10;;;6.50;99.90;;;;;;6282489;22;20386;-79
2022/01/23 03:35:59;;;;;;;6.47;3.83;;;6.50;99.90;;;;;;6282341;22;20000;-79
2022/01/23 03:38:24;;;;;;;14.80;4.90;;;6.50;99.90;;;;;;6255468;22;20061;-79
2022/01/23 03:40:50;;;;;;;12.57;3.90;;;6.50;99.90;;;;;;6285429;22;20122;-82
2022/01/23 03:43:22;;;;;;;9.75;4.38;;;6.50;99.90;;;;;;6257648;22;20324;-82
2022/01/23 03:50:46;;;;;;;12.75;4.40;;;6.90;99.90;;;;;;6286406;22;20015;-82
2022/01/23 03:53:11;;;;;;;11.98;4.68;;;6.40;99.90;;;;;;6286041;22;20011;-82
2022/01/23 03:55:37;;;;;;;9.70;4.03;;;6.40;99.90;;;;;;6258872;22;20090;-82
2022/01/23 03:58:04;;;;;;;12.82;3.72;;;6.40;99.90;;;;;;6259095;22;20418;-82
2022/01/23 04:00:30;;;;;;;10.55;4.45;;;6.40;99.90;;;;;;6286299;22;20007;-82
2022/01/23 04:02:55;;;;;;;9.15;3.67;;;6.40;99.90;;;;;;6286388;22;20004;-82
2022/01/23 04:05:21;;;;;;;8.70;3.92;;;6.40;99.90;;;;;;6286081;22;20003;-82
2022/01/23 04:07:47;;;;;;;10.98;4.30;;;6.40;99.90;;;;;;6285859;22;20004;-82
2022/01/23 04:10:15;;;;;;;11.23;3.70;;;6.40;99.90;;;;;;6258199;22;19996;-82
2022/01/23 04:12:57;;;;;;;9.50;4.40;;;6.40;99.90;;;;;;6285186;22;20049;-81
2022/01/23 04:20:43;;;;;;;10.73;3.65;;;6.40;99.90;;;;;;6285991;22;20018;-83
2022/01/23 05:04:29;;;;;;;8.38;3.47;;;6.10;99.90;;;;;;6281749;22;20014;-81
2022/01/23 05:07:04;;;;;;;12.05;4.25;;;6.10;99.90;;;;;;6254693;22;20451;-81
2022/01/23 05:09:31;;;;;;;13.77;4.15;;;6.10;99.90;;;;;;6254217;22;19999;-80
2022/01/23 05:12:06;;;;;;;9.15;3.90;;;6.10;99.90;;;;;;6253420;22;19996;-79
2022/01/23 05:14:38;;;;;;;8.30;2.90;;;6.20;99.90;;;;;;6254548;22;20410;-80
2022/01/23 05:17:07;;;;;;;11.15;3.40;;;6.10;99.90;;;;;;6281645;22;20003;-81
2022/01/23 05:19:33;;;;;;;;;;;6.10;99.90;;;;;;6282286;22;20003;-79
2022/01/23 05:24:58;;;;;;;10.05;4.13;;;6.10;99.90;;;;;;6279006;22;20090;-79
2022/01/23 05:27:27;;;;;;;9.95;3.10;;;6.10;99.90;;;;;;6252334;22;20000;-79
2022/01/23 05:29:54;;;;;;;12.25;3.55;;;6.10;99.90;;;;;;6254764;22;20000;-81
2022/01/23 05:32:21;;;;;;;8.73;2.80;;;6.10;99.90;;;;;;6252787;22;20427;-79
2022/01/23 05:34:47;;;;;;;13.45;4.00;;;6.10;99.90;;;;;;6252485;22;20416;-79
2022/01/23 05:37:13;;;;;;;7.95;3.45;;;6.10;99.90;;;;;;6277916;22;20026;-79
2022/01/23 05:39:39;;;;;;;8.50;3.53;;;6.10;99.90;;;;;;6253225;22;20004;-80
2022/01/23 05:42:07;;;;;;;9.60;3.33;;;6.00;99.90;;;;;;6281916;22;20088;-81
2022/01/23 05:44:35;;;;;;;8.05;3.20;;;6.10;99.90;;;;;;6281049;22;20419;-79
2022/01/23 05:47:00;;;;;;;8.57;3.70;;;6.00;99.90;;;;;;6254969;22;20422;-80
2022/01/23 05:49:27;;;;;;;10.43;3.47;;;6.00;99.90;;;;;;6281497;22;20026;-82
2022/01/23 05:51:52;;;;;;;8.95;3.75;;;6.00;99.90;;;;;;6283402;22;20453;-80
2022/01/23 05:54:18;;;;;;;10.15;3.75;;;6.00;99.90;;;;;;6257637;22;20000;-81
2022/01/23 05:56:43;;;;;;;7.32;3.45;;;6.00;99.90;;;;;;6285457;22;20000;-81
2022/01/23 05:59:09;;;;;;;9.05;3.17;;;6.00;99.90;;;;;;6284586;22;20010;-82
2022/01/23 06:01:35;;;;;;;12.07;3.92;;;6.00;99.90;;;;;;6256699;22;20031;-82
2022/01/23 06:04:00;;;;;;;10.57;3.25;;;5.90;99.90;;;;;;6284544;22;20004;-82
2022/01/23 06:06:26;;;;;;;7.88;3.45;;;5.90;99.90;;;;;;6284492;22;20490;-82
2022/01/23 06:08:51;;;;;;;9.02;2.80;;;6.00;99.90;;;;;;6256771;22;20061;-82
2022/01/23 06:11:17;;;;;;;8.52;3.42;;;6.00;99.90;;;;;;6256046;22;19995;-82
2022/01/23 06:13:43;;;;;;;8.05;3.60;;;6.00;99.90;;;;;;6284978;22;20046;-82
2022/01/23 06:16:08;;;;;;;9.40;4.10;;;6.00;99.90;;;;;;6284429;22;19996;-82
2022/01/23 06:18:38;;;;;;;13.57;3.67;;;6.00;99.90;;;;;;6256871;22;20004;-82
2022/01/23 06:21:03;;;;;;;13.75;4.47;;;6.00;99.90;;;;;;6283471;22;20317;-83
2022/01/23 06:23:30;;;;;;;8.15;3.65;;;6.10;99.90;;;;;;6283388;22;20065;-82
2022/01/23 06:25:57;;;;;;;10.27;3.08;;;6.10;99.90;;;;;;6256364;22;20038;-82
2022/01/23 06:28:37;;;;;;;10.57;3.75;;;6.10;99.90;;;;;;6255745;22;20010;-82
2022/01/23 06:31:03;;;;;;;8.15;3.65;;;6.10;99.90;;;;;;6256508;22;20320;-82
2022/01/23 06:33:29;;;;;;;12.32;4.18;;;6.20;99.90;;;;;;6256059;22;20004;-83
2022/01/23 06:35:54;;;;;;;8.13;3.42;;;6.10;99.90;;;;;;6256286;22;20083;-82
2022/01/23 06:38:20;;;;;;;8.38;3.55;;;6.10;99.90;;;;;;6256121;22;20406;-83
2022/01/23 06:40:45;;;;;;;10.70;3.80;;;6.00;99.90;;;;;;6283295;22;20028;-82
2022/01/23 06:43:11;;;;;;;10.00;3.80;;;6.00;99.90;;;;;;6256054;22;20007;-82
2022/01/23 06:45:36;;;;;;;9.00;3.70;;;6.00;99.90;;;;;;6282731;22;20008;-81
2022/01/23 06:48:02;;;;;;;11.80;3.40;;;6.00;99.90;;;;;;6257067;22;20021;-82
2022/01/23 06:50:27;;;;;;;11.35;4.18;;;6.00;99.90;;;;;;6284668;22;19996;-82
2022/01/23 06:52:53;;;;;;;15.43;4.05;;;6.00;99.90;;;;;;6284815;22;20006;-81
2022/01/23 06:55:19;;;;;;;9.38;3.53;;;6.00;99.90;;;;;;6257976;22;20000;-81
2022/01/23 06:57:44;;;;;;;10.88;4.25;;;6.00;99.90;;;;;;6283615;22;20016;-81
2022/01/23 07:00:10;;;;;;;6.82;2.85;;;6.10;99.90;;;;;;6257547;22;20361;-81
2022/01/23 07:02:36;;;;;;;11.85;3.35;;;6.10;99.90;;;;;;6258447;22;20435;-81
2022/01/23 07:05:02;;;;;;;9.25;3.60;;;6.10;99.90;;;;;;6284368;22;19995;-82
2022/01/23 07:07:28;;;;;;;8.50;2.92;;;6.10;99.90;;;;;;6283340;22;19996;-81
2022/01/23 07:09:53;;;;;;;8.77;2.53;;;6.20;99.90;;;;;;6255058;22;19995;-81
2022/01/23 07:12:19;;;;;;;7.47;2.50;;;6.10;99.90;;;;;;6254939;22;20007;-81
2022/01/23 07:14:44;;;;;;;11.63;3.33;;;6.10;99.90;;;;;;6283770;22;20071;-82
2022/01/23 07:17:09;;;;;;;8.48;3.15;;;6.10;99.90;;;;;;6255126;22;20015;-81
2022/01/23 07:19:35;;;;;;;9.13;3.17;;;6.10;99.90;;;;;;6282624;22;20074;-81
2022/01/23 07:22:01;;;;;;;6.60;2.70;;;6.10;99.90;;;;;;6254696;22;20102;-83
2022/01/23 07:24:27;;;;;;;10.60;3.47;;;6.00;99.90;;;;;;6254105;22;20410;-83
2022/01/23 07:26:52;;;;;;;6.40;2.88;;;6.00;99.90;;;;;;6255536;22;19999;-82
2022/01/23 07:29:18;;;;;;;10.13;2.58;;;6.00;99.90;;;;;;6282034;22;20475;-82
2022/01/23 07:31:57;;;;;;;6.88;2.42;;;6.00;99.90;;;;;;6254480;22;20010;-82
2022/01/23 07:34:23;;;;;;;7.43;3.20;;;6.00;99.90;;;;;;6255216;22;19999;-81
2022/01/23 07:36:48;;;;;;;6.50;2.28;;;9.10;99.90;;;;;;6254985;22;20022;-80
2022/01/23 07:39:14;;;;;;;7.18;2.28;;;6.00;99.90;;;;;;6255635;22;20086;-81
2022/01/23 07:41:39;;;;;;;11.23;3.65;;;6.10;99.90;;;;;;6256649;22;20010;-80
2022/01/23 07:44:05;;;;;;;8.23;2.40;;;6.10;99.90;;;;;;6283966;22;20007;-80
2022/01/23 07:46:31;;;;;;;9.02;2.55;;;6.10;99.90;;;;;;6284735;22;20046;-80
2022/01/23 07:48:56;;;;;;;6.20;2.58;;;6.10;99.90;;;;;;6282408;22;20004;-80
2022/01/23 07:51:22;;;;;;;6.60;2.35;;;6.10;99.90;;;;;;6254452;22;20445;-81
2022/01/23 07:53:48;;;;;;;9.27;3.00;;;6.10;99.90;;;;;;6282814;22;20071;-81
2022/01/23 07:56:13;;;;;;;6.88;2.38;;;6.10;99.90;;;;;;6283173;22;20000;-81
2022/01/23 07:58:39;;;;;;;5.55;2.30;;;6.10;99.90;;;;;;6255997;22;20007;-81
2022/01/23 08:01:05;;;;;;;5.55;2.22;;;6.00;99.90;;;;;;6282174;22;20420;-81
2022/01/23 08:03:31;;;;;;;9.63;3.17;;;6.10;99.90;;;;;;6283157;22;20082;-81
2022/01/23 08:05:56;;;;;;;9.20;3.78;;;7.60;99.90;;;;;;6283229;22;20007;-81
2022/01/23 08:08:22;;;;;;;8.55;2.47;;;6.10;99.90;;;;;;6283261;22;20003;-81
2022/01/23 08:10:47;;;;;;;4.85;2.05;;;6.10;99.90;;;;;;6281673;22;20301;-81
2022/01/23 08:13:13;;;;;;;9.88;2.10;;;6.00;99.90;;;;;;6253051;22;19996;-80
2022/01/23 08:15:39;;;;;;;8.82;2.50;;;6.00;99.90;;;;;;6253180;22;20003;-80
2022/01/23 08:18:07;;;;;;;9.80;2.60;;;6.10;99.90;;;;;;6253472;22;20077;-80
2022/01/23 08:20:34;;;;;;;8.88;2.88;;;6.10;99.90;;;;;;6254040;22;20336;-81
2022/01/23 08:23:02;;;;;;;7.60;2.75;;;6.10;99.90;;;;;;6254029;22;20346;-80
2022/01/23 08:25:28;;;;;;;6.60;2.80;;;6.10;99.90;;;;;;6256318;22;20046;-80
2022/01/23 08:27:54;;;;;;;10.77;3.22;;;6.20;99.90;;;;;;6282085;22;20446;-81
2022/01/23 08:30:20;;;;;;;9.68;3.13;;;6.20;99.90;;;;;;6256204;22;19996;-81
2022/01/23 08:32:46;;;;;;;8.68;3.15;;;6.20;99.90;;;;;;6282963;22;19996;-79
2022/01/23 08:35:11;;;;;;;8.30;2.83;;;6.30;99.90;;;;;;6282271;22;20007;-80
2022/01/23 08:37:38;;;;;;;10.55;3.35;;;6.30;99.90;;;;;;6255510;22;19996;-80
2022/01/23 08:40:15;;;;;;;12.45;3.00;;;6.40;99.90;;;;;;6285830;22;19995;-80
2022/01/23 08:42:41;;;;;;;7.35;2.72;;;6.40;99.90;;;;;;6279589;22;20006;-81
2022/01/23 08:45:07;;;;;;;7.95;3.17;;;6.40;99.90;;;;;;6250145;22;20004;-80
2022/01/23 08:47:32;;;;;;;9.00;3.25;;;6.50;99.90;;;;;;6277426;22;20083;-79
2022/01/23 08:49:58;;;;;;;8.57;2.85;;;6.50;99.90;;;;;;6252552;22;20010;-80
2022/01/23 08:52:24;;;;;;;9.23;3.13;;;6.50;99.90;;;;;;6253092;22;19996;-80
2022/01/23 08:54:51;;;;;;;7.35;2.75;;;6.50;99.90;;;;;;6282156;22;20492;-80
2022/01/23 08:57:20;;;;;;;10.82;3.65;;;6.40;99.90;;;;;;6254256;22;20053;-81
2022/01/23 08:59:47;;;;;;;6.88;3.15;;;6.60;99.90;;;;;;6254951;22;20000;-81
2022/01/23 09:02:12;;;;;;;9.15;3.53;;;6.60;99.90;;;;;;6254306;22;20042;-77
2022/01/23 09:04:38;;;;;;;11.63;3.10;;;6.70;99.90;;;;;;6249448;22;20003;-76
2022/01/23 09:07:04;;;;;;;8.73;3.70;;;6.70;99.90;;;;;;6277043;22;20004;-77
2022/01/23 09:09:36;;;;;;;9.25;4.15;;;6.70;99.90;;;;;;6276694;22;20034;-77
2022/01/23 09:14:54;;;;;;;11.55;4.40;;;6.70;99.90;;;;;;6218797;22;20083;-77
2022/01/23 09:17:19;;;;;;;9.68;4.30;;;6.70;99.90;;;;;;6249577;22;20428;-78
2022/01/23 09:19:47;;;;;;;14.60;5.55;;;6.80;99.90;;;;;;6276134;22;20003;-78
2022/01/23 09:22:12;;;;;;;9.95;4.15;;;6.70;99.90;;;;;;6249495;22;20012;-77
2022/01/23 09:24:38;;;;;;;10.68;4.22;;;6.80;99.90;;;;;;6276722;22;20336;-78
2022/01/23 09:27:07;;;;;;;9.43;3.78;;;6.80;99.90;;;;;;6278103;22;20000;-77
2022/01/23 09:29:36;;;;;;;15.93;4.95;;;6.80;99.90;;;;;;6251521;22;20003;-78
2022/01/23 09:32:09;;;;;;;10.27;4.30;;;6.80;99.90;;;;;;6278584;22;20347;-77
2022/01/23 09:34:36;;;;;;;10.82;4.10;;;6.90;99.90;;;;;;6278653;22;20000;-77
2022/01/23 09:37:04;;;;;;;12.65;5.50;;;6.90;99.90;;;;;;6279049;22;20000;-77
2022/01/23 09:39:31;;;;;;;15.60;5.38;;;6.90;99.90;;;;;;6278931;22;20003;-77
2022/01/23 09:42:00;;;;;;;9.60;4.07;;;6.90;99.90;;;;;;6278606;22;20010;-77
2022/01/23 09:44:31;;;;;;;12.00;4.90;;;7.00;99.90;;;;;;6279178;22;20045;-77
2022/01/23 09:46:57;;;;;;;12.73;5.15;;;6.90;99.90;;;;;;6278555;22;20402;-78
2022/01/23 09:49:25;;;;;;;13.65;5.03;;;7.00;99.90;;;;;;6279367;22;19999;-78
2022/01/23 09:51:54;;;;;;;13.70;4.93;;;7.00;99.90;;;;;;6278461;22;20424;-77
2022/01/23 09:54:20;;;;;;;;;;;7.10;99.90;;;;;;6279574;22;20276;-78
2022/01/23 09:56:46;;;;;;;17.50;5.57;;;7.10;99.90;;;;;;6278929;22;19905;-78
2022/01/23 09:59:14;;;;;;;10.57;4.88;;;7.10;99.90;;;;;;6252661;22;20086;-77
2022/01/23 10:01:45;;;;;;;13.13;5.75;;;7.20;99.90;;;;;;6278072;22;20474;-77
2022/01/23 10:04:11;;;;;;;14.73;5.80;;;7.30;99.90;;;;;;6251113;22;20053;-77
2022/01/23 10:06:37;;;;;;;13.70;5.13;;;7.20;99.90;;;;;;6278389;22;20004;-76
2022/01/23 10:09:06;;;;;;;12.65;4.47;;;7.30;99.90;;;;;;6250922;22;20320;-77
2022/01/23 10:11:37;;;;;;;15.93;5.22;;;7.30;99.90;;;;;;6250762;22;19996;-76
2022/01/23 10:14:03;;;;;;;14.38;5.25;;;7.30;99.90;;;;;;6278081;22;20026;-76
2022/01/23 10:16:30;;;;;;;11.32;5.22;;;7.30;99.90;;;;;;6250774;22;20007;-77
2022/01/23 10:18:56;;;;;;;13.80;4.88;;;7.30;99.90;;;;;;6251058;22;20340;-77
2022/01/23 10:21:23;;;;;;;13.68;5.28;;;7.30;99.90;;;;;;6251211;22;20004;-77
2022/01/23 10:23:50;;;;;;;11.95;5.45;;;7.30;99.90;;;;;;6251205;22;20035;-77
2022/01/23 10:26:37;;;;;;;15.13;5.72;;;7.40;99.90;;;;;;6278361;22;20004;-75
2022/01/23 10:29:15;;;;;;;12.20;5.47;;;7.40;99.90;;;;;;6278184;22;20003;-75
2022/01/23 10:32:23;;;;;;;;;;;7.40;99.90;;;;;;6278088;22;20007;-75
2022/01/23 10:34:56;;;;;;;16.10;5.30;;;7.40;99.90;;;;;;6214419;23;19900;-76
2022/01/23 10:37:29;;;;;;;15.40;5.85;;;7.40;99.90;;;;;;6189662;23;20009;-77
2022/01/23 10:39:55;;;;;;;17.95;5.57;;;7.40;99.90;;;;;;6251885;22;20400;-79
2022/01/23 10:43:06;;;;;;;15.98;7.07;;;7.50;99.90;;;;;;6251306;22;20075;-76
2022/01/23 10:50:48;;;;;;;19.15;6.45;;;7.60;99.90;;;;;;6285306;22;20452;-77
2022/01/23 10:53:14;;;;;;;13.98;5.90;;;7.60;99.90;;;;;;6278373;22;20031;-77
2022/01/23 10:55:39;;;;;;;22.20;7.13;;;7.60;99.90;;;;;;6250909;22;20007;-76
2022/01/23 10:58:17;;;;;;;14.80;6.07;;;7.70;99.90;;;;;;6278663;22;20370;-76
2022/01/23 11:00:42;;;;;;;15.13;6.13;;;7.70;99.90;;;;;;6250911;22;20031;-77
2022/01/23 11:03:14;;;;;;;20.98;6.75;;;7.80;99.90;;;;;;6277804;22;20000;-78
2022/01/23 11:05:40;;;;;;;17.17;6.75;;;7.80;99.90;;;;;;6251133;22;20004;-77
2022/01/23 11:08:27;;;;;;;15.02;6.45;;;7.90;99.90;;;;;;6250421;22;20007;-74
2022/01/23 11:10:59;;;;;;;16.25;5.57;;;7.90;99.90;;;;;;6277462;22;20073;-77
2022/01/23 11:19:27;;;;;;;17.65;5.82;;;7.90;99.90;;;;;;6278179;22;20065;-78
2022/01/23 11:21:53;;;;;;;16.90;6.35;;;8.00;99.90;;;;;;6277434;22;20019;-77
2022/01/23 11:24:22;;;;;;;15.18;6.18;;;8.00;99.90;;;;;;6278199;22;19999;-78
2022/01/23 11:26:58;;;;;;;17.02;6.93;;;8.00;99.90;;;;;;6277463;22;20093;-77
2022/01/23 11:29:24;;;;;;;15.13;6.57;;;8.00;99.90;;;;;;6277231;22;20003;-78
2022/01/23 11:31:50;;;;;;;17.60;6.50;;;8.00;99.90;;;;;;6250157;22;20494;-77
2022/01/23 11:34:20;;;;;;;19.65;6.88;;;8.00;99.90;;;;;;6277775;22;20067;-77
2022/01/23 11:36:46;;;;;;;20.75;6.25;;;8.10;99.90;;;;;;6250657;22;20000;-78
2022/01/23 11:39:21;;;;;;;22.25;6.63;;;8.00;99.90;;;;;;6277683;22;20015;-78
2022/01/23 11:50:43;;;;;;;14.05;5.63;;;8.20;99.90;;;;;;6277830;22;20061;-77
2022/01/23 11:56:43;;;;;;;15.82;4.97;;;8.30;99.90;;;;;;6278284;22;20038;-79
2022/01/23 11:59:32;;;;;;;14.40;5.13;;;8.30;99.90;;;;;;6250084;22;20023;-78
2022/01/23 12:02:11;;;;;;;12.73;5.38;;;8.40;99.90;;;;;;6250118;22;20000;-77
2022/01/23 12:04:37;;;;;;;;;;;8.40;99.90;;;;;;6277734;22;20004;-77
2022/01/23 12:07:10;;;;;;;13.05;4.90;;;8.40;99.90;;;;;;6277097;22;19942;-78
2022/01/23 12:09:36;;;;;;;13.40;5.55;;;8.50;99.90;;;;;;6250053;22;20049;-78
2022/01/23 12:12:38;;;;;;;15.45;6.32;;;8.50;99.90;;;;;;6277082;22;20004;-78
2022/01/23 12:18:16;;;;;;;11.70;4.47;;;8.40;99.90;;;;;;6278739;22;20069;-79
2022/01/23 12:20:46;;;;;;;15.40;4.85;;;8.50;99.90;;;;;;6251236;22;20012;-79
2022/01/23 12:23:14;;;;;;;11.75;4.65;;;8.50;99.90;;;;;;6251452;22;20346;-77
2022/01/23 12:25:52;;;;;;;12.95;4.78;;;8.40;99.90;;;;;;6276779;22;20484;-77
2022/01/23 12:28:29;;;;;;;11.70;4.80;;;8.50;99.90;;;;;;6277249;22;20006;-76
2022/01/23 12:30:56;;;;;;;12.15;4.03;;;8.40;99.90;;;;;;6249626;22;20003;-78
2022/01/23 12:33:29;;;;;;;10.40;3.35;;;8.40;99.90;;;;;;6249550;22;20065;-77
2022/01/23 12:36:15;;;;;;;11.93;4.35;;;8.40;99.90;;;;;;6249568;22;20007;-77
2022/01/23 12:38:47;;;;;;;8.70;3.60;;;8.40;99.90;;;;;;6255632;22;20008;-77
2022/01/23 12:41:49;;;;;;;11.73;3.92;;;8.40;99.90;;;;;;6276409;22;20010;-77
2022/01/23 12:44:25;;;;;;;10.05;4.18;;;8.40;99.90;;;;;;6250153;22;20339;-77
2022/01/23 12:47:02;;;;;;;10.48;3.70;;;8.40;99.90;;;;;;6276891;22;20007;-77
2022/01/23 12:49:38;;;;;;;13.65;4.60;;;8.40;99.90;;;;;;6276715;22;20011;-77
2022/01/23 12:52:07;;;;;;;13.43;5.05;;;8.40;99.90;;;;;;6249391;22;19999;-77
2022/01/23 12:54:46;;;;;;;10.50;4.40;;;8.40;99.90;;;;;;6249402;22;20343;-77
2022/01/23 12:57:18;;;;;;;8.38;3.67;;;8.40;99.90;;;;;;6276992;22;20000;-77
2022/01/23 12:59:57;;;;;;;14.02;4.55;;;8.40;99.90;;;;;;6276891;22;20007;-77
2022/01/23 13:02:26;;;;;;;13.32;4.13;;;8.40;99.90;;;;;;6278179;22;20000;-77
2022/01/23 13:04:52;;;;;;;;;;;8.30;99.90;;;;;;6251929;22;20015;-77
2022/01/23 13:07:35;;;;;;;11.50;4.35;;;8.30;99.90;;;;;;6278913;22;20030;-77
2022/01/23 13:12:55;;;;;;;11.63;4.47;;;8.40;99.90;;;;;;6279519;22;20382;-77
2022/01/23 13:31:39;;;;;;;10.55;3.90;;;8.40;99.90;;;;;;6282947;22;20085;-77
2022/01/23 13:34:20;;;;;;;11.68;3.60;;;8.40;99.90;;;;;;6278708;22;20026;-77
2022/01/23 13:36:53;;;;;;;12.13;3.85;;;8.40;99.90;;;;;;6251119;22;20023;-77
2022/01/23 13:39:46;;;;;;;12.43;4.28;;;8.30;99.90;;;;;;6278448;22;20007;-78
2022/01/23 13:42:41;;;;;;;13.50;4.63;;;8.30;99.90;;;;;;6258879;22;20082;-77
2022/01/23 13:59:34;;;;;;;17.38;5.32;;;8.40;99.90;;;;;;6287721;22;20022;-83
2022/01/23 14:02:19;;;;;;;13.15;5.38;;;8.30;99.90;;;;;;6259948;22;20018;-81
2022/01/23 14:05:04;;;;;;;15.73;5.82;;;8.30;99.90;;;;;;6258596;22;20004;-82
2022/01/23 14:07:31;;;;;;;13.00;6.10;;;8.30;99.90;;;;;;6285618;22;20004;-82
2022/01/23 14:10:11;;;;;;;14.27;5.45;;;8.30;99.90;;;;;;6258765;22;20008;-83
2022/01/23 14:12:37;;;;;;;12.10;5.85;;;8.30;99.90;;;;;;6258359;22;20000;-83
2022/01/23 14:15:09;;;;;;;17.75;6.70;;;8.30;99.90;;;;;;6258491;22;20007;-81
2022/01/23 14:17:39;;;;;;;19.60;7.25;;;8.30;99.90;;;;;;6259483;22;20000;-84
2022/01/23 14:20:04;;;;;;;15.80;6.75;;;8.30;99.90;;;;;;6284835;22;20000;-80
2022/01/23 14:22:33;;;;;;;18.55;7.10;;;8.30;99.90;;;;;;6256156;22;20007;-80
2022/01/23 14:25:13;;;;;;;15.52;6.80;;;8.30;99.90;;;;;;6283778;22;20049;-80
2022/01/23 14:27:41;;;;;;;18.00;6.53;;;8.20;99.90;;;;;;6284275;22;20004;-80
2022/01/23 14:30:11;;;;;;;19.00;6.18;;;8.20;99.90;;;;;;6282107;22;20003;-79
2022/01/23 14:32:48;;;;;;;17.10;7.25;;;8.20;99.90;;;;;;6254249;22;19996;-81
2022/01/23 14:35:19;;;;;;;16.88;7.65;;;8.20;99.90;;;;;;6253708;22;20003;-79
2022/01/23 14:37:47;;;;;;;16.98;6.85;;;11.50;99.90;;;;;;6252534;22;19999;-79
2022/01/23 14:40:27;;;;;;;15.35;7.13;;;8.70;99.90;;;;;;6252080;22;20000;-79
2022/01/23 14:43:28;;;;;;;17.33;7.03;;;8.20;99.90;;;;;;6280889;22;20404;-80
2022/01/23 14:45:56;;;;;;;20.08;7.53;;;8.10;99.90;;;;;;6233307;22;20004;-80
2022/01/23 14:48:24;;;;;;;16.60;6.75;;;8.10;99.90;;;;;;6280823;22;20003;-80
2022/01/23 14:50:53;;;;;;;16.38;7.20;;;8.10;99.90;;;;;;6254217;22;20003;-79
2022/01/23 14:53:23;;;;;;;20.23;6.90;;;8.10;99.90;;;;;;6253383;22;19996;-80
2022/01/23 14:55:53;;;;;;;19.02;7.45;;;8.10;99.90;;;;;;6253092;22;20000;-79
2022/01/23 14:58:21;;;;;;;18.55;7.20;;;8.10;99.90;;;;;;6253210;22;20010;-79
2022/01/23 15:00:56;;;;;;;16.10;7.13;;;8.10;99.90;;;;;;6252333;22;20003;-79
2022/01/23 15:03:24;;;;;;;21.00;7.40;;;8.10;99.90;;;;;;6279166;22;20004;-80
2022/01/23 15:05:49;;;;;;;22.92;7.35;;;8.10;99.90;;;;;;6278671;22;20061;-79
2022/01/23 15:08:16;;;;;;;17.10;7.30;;;8.10;99.90;;;;;;6251671;22;20008;-80
2022/01/23 15:10:44;;;;;;;17.45;7.38;;;8.00;99.90;;;;;;6252788;22;20003;-80
2022/01/23 15:13:11;;;;;;;21.33;6.53;;;8.00;99.90;;;;;;6280823;22;20000;-80
2022/01/23 15:15:37;;;;;;;18.08;7.60;;;8.00;99.90;;;;;;6280549;22;20015;-80
2022/01/23 15:18:04;;;;;;;17.30;6.57;;;8.00;99.90;;;;;;6279316;22;20327;-80
2022/01/23 15:20:33;;;;;;;15.52;7.18;;;8.00;99.90;;;;;;6251958;22;20007;-80
2022/01/23 15:22:59;;;;;;;14.77;6.93;;;8.00;99.90;;;;;;6251927;22;20435;-80
2022/01/23 15:25:26;;;;;;;18.77;7.93;;;8.00;99.90;;;;;;6278860;22;20042;-80
2022/01/23 15:27:52;;;;;;;21.10;7.80;;;9.60;99.90;;;;;;6252482;22;20015;-80
2022/01/23 15:30:21;;;;;;;21.23;8.18;;;7.90;99.90;;;;;;6280058;22;20004;-81
2022/01/23 15:32:47;;;;;;;15.15;6.60;;;7.90;99.90;;;;;;6253241;22;19996;-81
2022/01/23 15:35:14;;;;;;;18.08;7.28;;;7.90;99.90;;;;;;6252970;22;20023;-80
2022/01/23 15:37:40;;;;;;;16.23;6.53;;;7.80;99.90;;;;;;6252579;22;20004;-80
2022/01/23 15:40:10;;;;;;;13.82;6.18;;;7.90;99.90;;;;;;6252301;22;20493;-80
2022/01/23 15:42:39;;;;;;;15.82;5.97;;;7.80;99.90;;;;;;6252074;22;20000;-80
2022/01/23 15:45:06;;;;;;;13.82;5.38;;;8.10;99.90;;;;;;6252418;22;20007;-81
2022/01/23 15:47:33;;;;;;;13.52;5.78;;;7.80;99.90;;;;;;6280045;22;20095;-80
2022/01/23 15:49:59;;;;;;;12.07;5.45;;;7.80;99.90;;;;;;6279844;22;20000;-80
2022/01/23 15:52:25;;;;;;;14.00;5.40;;;7.70;99.90;;;;;;6252576;22;20454;-79
2022/01/23 15:54:51;;;;;;;17.20;6.00;;;7.70;99.90;;;;;;6251451;22;20007;-80
2022/01/23 15:57:16;;;;;;;13.13;4.82;;;7.70;99.90;;;;;;6252427;22;20000;-81
2022/01/23 15:59:42;;;;;;;16.90;6.40;;;7.70;99.90;;;;;;6280063;22;20386;-80
2022/01/23 16:02:08;;;;;;;15.35;6.25;;;7.70;99.90;;;;;;6253244;22;20432;-80
2022/01/23 16:04:37;;;;;;;12.65;5.82;;;7.70;99.90;;;;;;6251115;22;20083;-79
2022/01/23 16:07:04;;;;;;;15.05;5.55;;;7.60;99.90;;;;;;6251130;22;20003;-79
2022/01/23 16:09:30;;;;;;;15.48;6.35;;;7.90;99.90;;;;;;6251578;22;20069;-79
2022/01/23 16:11:56;;;;;;;16.77;6.53;;;7.60;99.90;;;;;;6278878;22;20000;-80
2022/01/23 16:14:22;;;;;;;13.75;5.35;;;7.60;99.90;;;;;;6278115;22;20004;-79
2022/01/23 16:16:49;;;;;;;19.27;6.32;;;7.60;99.90;;;;;;6253039;22;19996;-75
2022/01/23 16:19:14;;;;;;;17.13;6.78;;;7.60;99.90;;;;;;6281021;22;19999;-80
2022/01/23 16:21:41;;;;;;;15.75;7.18;;;7.50;99.90;;;;;;6252282;22;20011;-79
2022/01/23 16:24:07;;;;;;;17.90;6.88;;;7.60;99.90;;;;;;6280193;22;20000;-81
2022/01/23 16:26:33;;;;;;;16.58;7.55;;;7.50;99.90;;;;;;6280328;22;20026;-80
2022/01/23 16:28:59;;;;;;;19.52;6.97;;;7.50;99.90;;;;;;6251986;22;19999;-79
2022/01/23 16:31:24;;;;;;;18.00;6.93;;;7.40;99.90;;;;;;6252468;22;20000;-80
2022/01/23 16:33:50;;;;;;;16.05;7.00;;;7.40;99.90;;;;;;6251672;22;20128;-80
2022/01/23 16:36:16;;;;;;;15.80;7.13;;;7.40;99.90;;;;;;6278596;22;19996;-80
2022/01/23 16:38:41;;;;;;;17.17;7.05;;;7.40;99.90;;;;;;6279187;22;20491;-80